Airfield :
LOGIN :

Register | Disclaimer

   EN    FR    IT 

 










Legend :    VFR   Marginal VFR   IFR   Intensive IFR   Very Intensive IFR
Visi :
Ceiling :
>= 8 km
>= 3000ft
5 to 8 km
1000 to 3000 ft
1500m to 5 km
500 to 1000 ft
800 to 1500m
200 to 500 ft
< 800m
< 200 ft
Symbols :   Thunderstorms  Fog  Heavy snow  Heavy precipitations  Wind > 20 kt
SIGMETs :     Misc.  Thunderstorms  Icing  Turbulence  Mountain Waves  Volcanic Ashes







- Airport Elevation : 788 ft
- IATA code : DCM
- Download approach charts


LFCK - Castres-Mazamet

CURRENT METAR :
  • 161430Z AUTO 25004KT 190V310 CAVOK 31/14 Q1018 NOSIG

EXPIRED METARs :
  • 161400Z AUTO 28004KT 210V020 CAVOK 31/14 Q1019 NOSIG
  • 161330Z AUTO 27005KT 200V330 8000 NSC 30/14 Q1019 NOSIG
  • 161300Z AUTO VRB02KT CAVOK 30/13 Q1019 NOSIG
  • 161230Z AUTO 31004KT 260V040 CAVOK 29/13 Q1020 NOSIG
  • 161200Z AUTO 29003KT 240V010 CAVOK 28/13 Q1020 NOSIG

TAF TAF LFCK
Valid from the 16 at 12:00 until the 16 at 21:00 UTC


161100Z 1612/1621 30005KT CAVOK
TEMPO 1616/1621 VRB02KT
No reported NOTAMs for that airfield.



MET'MAP, your aeronautical weather chart ! - Copyright ORBIFLY December 2007 - Disclaimer

ORBIFLY MET'MAP TEAM :

Programming & Development : Alexandra Zaïnal
Concept & Development : Baudouin d'Aumeries
Co-Development & Prog : Marc-Olivier Méhu
Technical & hardware support : Manuel Goepfert

Contact : metmap@orbifly.com




SOURCES & CREDITS :

   NOAA